createdAt,value
2019-01-23T00:02:21.164Z,99272.00
2019-01-23T00:04:51.579Z,99269.00
2019-01-23T00:07:21.975Z,99278.00
2019-01-23T00:09:52.379Z,99268.00
2019-01-23T00:12:22.797Z,99263.00
2019-01-23T00:14:53.235Z,99264.00
2019-01-23T00:17:23.565Z,99266.00
2019-01-23T00:19:53.944Z,99259.00
2019-01-23T00:22:24.350Z,99260.00
2019-01-23T00:24:55.094Z,99259.00
2019-01-23T00:27:25.559Z,99257.00
2019-01-23T00:29:56.019Z,99260.00
2019-01-23T00:32:26.623Z,99257.00
2019-01-23T00:34:57.329Z,99250.00
2019-01-23T00:37:27.683Z,99248.00
2019-01-23T00:39:58.834Z,99237.00
2019-01-23T00:42:29.652Z,99243.00
2019-01-23T00:45:00.274Z,99239.00
2019-01-23T00:47:30.701Z,99232.00
2019-01-23T00:50:01.138Z,99237.00
2019-01-23T00:52:32.253Z,99238.00
2019-01-23T00:55:02.668Z,99236.00
2019-01-23T00:57:33.093Z,99237.00
2019-01-23T01:00:04.095Z,99235.00
2019-01-23T01:02:34.453Z,99238.00
2019-01-23T01:05:05.567Z,99232.00
2019-01-23T01:07:36.064Z,99221.00
2019-01-23T01:10:10.391Z,99226.00
2019-01-23T01:12:40.859Z,99221.00
2019-01-23T01:15:13.469Z,99228.00
2019-01-23T01:17:44.837Z,99230.00
2019-01-23T01:20:16.768Z,99225.00
2019-01-23T01:22:47.255Z,99232.00
2019-01-23T01:25:18.888Z,99217.00
2019-01-23T01:27:49.275Z,99224.00
2019-01-23T01:30:22.674Z,99219.00
2019-01-23T01:32:53.094Z,99221.00
2019-01-23T01:35:23.719Z,99225.00
2019-01-23T01:37:54.531Z,99229.00
2019-01-23T01:40:24.965Z,99224.00
2019-01-23T01:42:55.428Z,99229.00
2019-01-23T01:45:26.307Z,99227.00
2019-01-23T01:47:57.449Z,99220.00
2019-01-23T01:50:28.468Z,99218.00
2019-01-23T01:52:58.870Z,99220.00
2019-01-23T01:55:29.296Z,99213.00
2019-01-23T01:58:02.712Z,99224.00
2019-01-23T02:00:33.171Z,99218.00
2019-01-23T02:03:03.894Z,99213.00
2019-01-23T02:05:34.270Z,99214.00
2019-01-23T02:08:04.845Z,99211.00
2019-01-23T02:10:35.876Z,99201.00
2019-01-23T02:13:06.295Z,99215.00
2019-01-23T02:15:37.039Z,99219.00
2019-01-23T02:18:09.590Z,99202.00
2019-01-23T02:20:40.484Z,99201.00
2019-01-23T02:23:10.992Z,99207.00
2019-01-23T02:25:41.484Z,99205.00
2019-01-23T02:28:11.906Z,99204.00
2019-01-23T02:30:42.667Z,99197.00
2019-01-23T02:33:13.093Z,99196.00
2019-01-23T02:35:43.855Z,99202.00
2019-01-23T02:38:16.563Z,99203.00
2019-01-23T02:40:47.434Z,99193.00
2019-01-23T02:43:18.225Z,99187.00
2019-01-23T02:45:48.988Z,99185.00
2019-01-23T02:48:19.390Z,99178.00
2019-01-23T02:50:50.159Z,99182.00
2019-01-23T02:53:20.792Z,99189.00
2019-01-23T02:55:51.235Z,99192.00
2019-01-23T02:58:26.185Z,99184.00
2019-01-23T03:00:57.128Z,99179.00
2019-01-23T03:03:27.534Z,99177.00
2019-01-23T03:05:58.026Z,99173.00
2019-01-23T03:08:28.486Z,99165.00
2019-01-23T03:10:58.977Z,99165.00
2019-01-23T03:13:29.368Z,99178.00
2019-01-23T03:15:59.745Z,99173.00
2019-01-23T03:18:49.265Z,99166.00
2019-01-23T03:21:19.624Z,99164.00
2019-01-23T03:23:50.635Z,99162.00
2019-01-23T03:26:21.379Z,99160.00
2019-01-23T03:28:51.840Z,99161.00
2019-01-23T03:31:22.290Z,99152.00
2019-01-23T03:33:52.983Z,99165.00
2019-01-23T03:36:23.433Z,99161.00
2019-01-23T03:38:54.218Z,99164.00
2019-01-23T03:41:25.026Z,99156.00
2019-01-23T03:43:55.491Z,99156.00
2019-01-23T03:46:25.926Z,99147.00
2019-01-23T03:48:56.311Z,99156.00
2019-01-23T03:51:27.021Z,99154.00
2019-01-23T03:53:57.713Z,99147.00
2019-01-23T03:56:28.111Z,99163.00
2019-01-23T03:58:58.771Z,99152.00
2019-01-23T04:01:29.127Z,99152.00
2019-01-23T04:03:59.763Z,99162.00
2019-01-23T04:06:30.473Z,99147.00
2019-01-23T04:09:00.885Z,99160.00
2019-01-23T04:11:31.635Z,99155.00
2019-01-23T04:14:02.541Z,99164.00
2019-01-23T04:16:33.571Z,99156.00
2019-01-23T04:19:04.038Z,99147.00
2019-01-23T04:21:35.071Z,99163.00
2019-01-23T04:24:05.632Z,99154.00
2019-01-23T04:26:36.034Z,99149.00
2019-01-23T04:29:06.530Z,99154.00
2019-01-23T04:31:36.993Z,99155.00
2019-01-23T04:34:07.730Z,99145.00
2019-01-23T04:36:38.054Z,99150.00
2019-01-23T04:39:10.305Z,99151.00
2019-01-23T04:41:41.044Z,99154.00
2019-01-23T04:44:11.977Z,99147.00
2019-01-23T04:46:42.419Z,99140.00
2019-01-23T04:49:12.801Z,99145.00
2019-01-23T04:51:49.494Z,99143.00
2019-01-23T04:54:20.353Z,99147.00
2019-01-23T04:56:51.026Z,99146.00
2019-01-23T04:59:21.409Z,99139.00
2019-01-23T05:01:52.143Z,99140.00
2019-01-23T05:04:22.562Z,99140.00
2019-01-23T05:06:52.971Z,99143.00
2019-01-23T05:09:23.765Z,99138.00
2019-01-23T05:11:54.826Z,99146.00
2019-01-23T05:14:25.239Z,99148.00
2019-01-23T05:16:55.887Z,99142.00
2019-01-23T05:19:30.380Z,99135.00
2019-01-23T05:22:00.800Z,99140.00
2019-01-23T05:24:31.170Z,99137.00
2019-01-23T05:27:01.570Z,99131.00
2019-01-23T05:29:32.645Z,99141.00
2019-01-23T05:32:03.055Z,99145.00
2019-01-23T05:34:33.403Z,99150.00
2019-01-23T05:37:03.817Z,99143.00
2019-01-23T05:39:34.595Z,99149.00
2019-01-23T05:42:05.047Z,99147.00
2019-01-23T05:44:35.507Z,99148.00
2019-01-23T05:47:05.912Z,99139.00
2019-01-23T05:49:36.559Z,99145.00
2019-01-23T05:52:07.241Z,99138.00
2019-01-23T05:54:38.106Z,99142.00
2019-01-23T05:57:08.467Z,99136.00
2019-01-23T05:59:39.126Z,99143.00
2019-01-23T06:02:09.629Z,99149.00
2019-01-23T06:04:40.352Z,99155.00
2019-01-23T06:07:10.846Z,99153.00
2019-01-23T06:09:44.115Z,99152.00
2019-01-23T06:12:14.445Z,99153.00
2019-01-23T06:14:44.871Z,99157.00
2019-01-23T06:17:15.250Z,99168.00
2019-01-23T06:19:45.935Z,99164.00
2019-01-23T06:22:16.611Z,99177.00
2019-01-23T06:24:48.219Z,99170.00
2019-01-23T06:27:18.591Z,99174.00
2019-01-23T06:30:12.378Z,99164.00
2019-01-23T06:32:42.796Z,99164.00
2019-01-23T06:35:13.771Z,99166.00
2019-01-23T06:37:44.551Z,99173.00
2019-01-23T06:40:16.055Z,99168.00
2019-01-23T06:42:46.423Z,99172.00
2019-01-23T06:45:18.374Z,99171.00
2019-01-23T06:47:50.245Z,99166.00
2019-01-23T06:50:22.510Z,99167.00
2019-01-23T06:52:52.940Z,99174.00
2019-01-23T06:55:23.347Z,99184.00
2019-01-23T06:57:53.699Z,99173.00
2019-01-23T07:00:26.569Z,99184.00
2019-01-23T07:02:57.975Z,99188.00
2019-01-23T07:05:28.569Z,99168.00
2019-01-23T07:07:59.228Z,99180.00
2019-01-23T07:10:29.863Z,99174.00
2019-01-23T07:13:00.611Z,99173.00
2019-01-23T07:15:40.702Z,99190.00
2019-01-23T07:18:11.758Z,99177.00
2019-01-23T07:20:42.454Z,99170.00
2019-01-23T07:23:13.150Z,99171.00
2019-01-23T07:25:43.927Z,99173.00
2019-01-23T07:28:14.571Z,99171.00
2019-01-23T07:30:55.193Z,99164.00
2019-01-23T07:33:25.857Z,99175.00
2019-01-23T07:35:56.275Z,99177.00
2019-01-23T07:38:26.816Z,99181.00
2019-01-23T07:40:57.200Z,99189.00
2019-01-23T07:43:27.600Z,99184.00
2019-01-23T07:45:57.998Z,99189.00
2019-01-23T07:48:28.696Z,99176.00
2019-01-23T07:51:00.216Z,99182.00
2019-01-23T07:53:31.035Z,99177.00
2019-01-23T07:56:01.466Z,99191.00
2019-01-23T07:58:32.155Z,99185.00
2019-01-23T08:01:02.681Z,99182.00
2019-01-23T08:03:33.018Z,99196.00
2019-01-23T08:06:03.392Z,99184.00
2019-01-23T08:08:34.489Z,99186.00
2019-01-23T08:11:05.007Z,99195.00
2019-01-23T08:13:35.878Z,99195.00
2019-01-23T08:16:06.309Z,99199.00
2019-01-23T08:18:37.401Z,99192.00
2019-01-23T08:21:07.793Z,99195.00
2019-01-23T08:23:38.267Z,99190.00
2019-01-23T08:26:08.643Z,99192.00
2019-01-23T08:28:39.095Z,99189.00
2019-01-23T08:31:09.457Z,99197.00
2019-01-23T08:33:39.835Z,99200.00
2019-01-23T08:36:10.266Z,99200.00
2019-01-23T08:38:40.647Z,99199.00
2019-01-23T08:41:11.415Z,99211.00
2019-01-23T08:43:41.930Z,99196.00
2019-01-23T08:46:12.662Z,99195.00
2019-01-23T08:48:43.329Z,99217.00
2019-01-23T08:51:13.717Z,99215.00
2019-01-23T08:53:44.404Z,99206.00
2019-01-23T08:56:14.813Z,99210.00
2019-01-23T08:58:45.203Z,99216.00
2019-01-23T09:01:15.603Z,99206.00
2019-01-23T09:03:46.815Z,99215.00
2019-01-23T09:06:17.134Z,99215.00
2019-01-23T09:08:47.641Z,99209.00
2019-01-23T09:11:18.466Z,99216.00
2019-01-23T09:13:49.016Z,99218.00
2019-01-23T09:16:19.640Z,99218.00
2019-01-23T09:18:50.047Z,99218.00
2019-01-23T09:21:20.704Z,99220.00
2019-01-23T09:23:51.073Z,99227.00
2019-01-23T09:26:21.425Z,99223.00
2019-01-23T09:28:51.819Z,99221.00
2019-01-23T09:32:37.170Z,99224.00
2019-01-23T09:35:40.585Z,99225.00
2019-01-23T09:39:01.445Z,99219.00
2019-01-23T09:42:15.292Z,99224.00
2019-01-23T09:45:38.190Z,99232.00
2019-01-23T09:48:30.261Z,99231.00
2019-01-23T09:51:58.292Z,99229.00
2019-01-23T09:54:29.221Z,99233.00
2019-01-23T09:56:59.618Z,99236.00
2019-01-23T09:59:30.097Z,99239.00
2019-01-23T10:02:00.452Z,99237.00
2019-01-23T10:04:30.850Z,99235.00
2019-01-23T10:07:01.217Z,99243.00
2019-01-23T10:09:31.658Z,99233.00
2019-01-23T10:12:02.090Z,99252.00
2019-01-23T10:14:32.713Z,99239.00
2019-01-23T10:17:04.142Z,99241.00
2019-01-23T10:19:34.551Z,99252.00
2019-01-23T10:22:05.474Z,99248.00
2019-01-23T10:24:36.227Z,99249.00
2019-01-23T10:27:06.602Z,99242.00
2019-01-23T10:29:37.029Z,99244.00
2019-01-23T10:32:07.405Z,99252.00
2019-01-23T10:34:37.843Z,99250.00
2019-01-23T10:37:08.275Z,99243.00
2019-01-23T10:39:39.185Z,99244.00
2019-01-23T10:42:09.597Z,99244.00
2019-01-23T10:44:40.081Z,99253.00
2019-01-23T10:47:10.875Z,99252.00
2019-01-23T10:49:41.254Z,99258.00
2019-01-23T10:52:11.680Z,99249.00
2019-01-23T10:54:42.229Z,99245.00
2019-01-23T10:57:16.095Z,99242.00
2019-01-23T10:59:59.313Z,99242.00
2019-01-23T11:02:29.812Z,99239.00
2019-01-23T11:05:00.229Z,99250.00
2019-01-23T11:07:30.982Z,99244.00
2019-01-23T11:10:01.867Z,99244.00
2019-01-23T11:12:32.774Z,99236.00
2019-01-23T11:15:03.283Z,99246.00
2019-01-23T11:17:34.834Z,99226.00
2019-01-23T11:20:06.415Z,99230.00
2019-01-23T11:22:36.817Z,99236.00
2019-01-23T11:25:08.637Z,99236.00
2019-01-23T11:27:39.368Z,99236.00
2019-01-23T11:30:14.835Z,99246.00
2019-01-23T11:32:45.329Z,99235.00
2019-01-23T11:35:15.769Z,99235.00
2019-01-23T11:37:46.295Z,99244.00
2019-01-23T11:40:23.512Z,99244.00
2019-01-23T11:42:54.707Z,99237.00
2019-01-23T11:45:25.168Z,99256.00
2019-01-23T11:47:56.154Z,99250.00
2019-01-23T11:50:26.728Z,99253.00
2019-01-23T11:52:57.104Z,99246.00
2019-01-23T11:55:27.509Z,99252.00
2019-01-23T11:57:58.405Z,99249.00
2019-01-23T12:00:31.525Z,99253.00
2019-01-23T12:03:02.311Z,99248.00
2019-01-23T12:05:32.769Z,99242.00
2019-01-23T12:08:03.239Z,99248.00
2019-01-23T12:10:34.486Z,99253.00
2019-01-23T12:13:04.880Z,99249.00
2019-01-23T12:15:41.270Z,99255.00
2019-01-23T12:18:12.043Z,99251.00
2019-01-23T12:20:42.739Z,99242.00
2019-01-23T12:23:13.104Z,99248.00
2019-01-23T12:25:43.655Z,99239.00
2019-01-23T12:28:14.106Z,99243.00
2019-01-23T12:30:44.588Z,99243.00
2019-01-23T12:33:14.974Z,99242.00
2019-01-23T12:35:46.153Z,99247.00
2019-01-23T12:38:16.547Z,99244.00
2019-01-23T12:40:47.192Z,99247.00
2019-01-23T12:43:17.624Z,99243.00
2019-01-23T12:45:48.288Z,99238.00
2019-01-23T12:48:18.698Z,99242.00
2019-01-23T12:50:49.838Z,99246.00
2019-01-23T12:53:20.693Z,99250.00
2019-01-23T12:55:51.102Z,99250.00
2019-01-23T12:58:21.512Z,99247.00
2019-01-23T13:00:51.956Z,99251.00
2019-01-23T13:03:23.321Z,99251.00
2019-01-23T13:05:54.360Z,99258.00
2019-01-23T13:08:25.614Z,99251.00
2019-01-23T13:10:55.986Z,99254.00
2019-01-23T13:13:27.155Z,99251.00
2019-01-23T13:15:57.518Z,99258.00
2019-01-23T13:18:28.013Z,99256.00
2019-01-23T13:20:58.415Z,99258.00
2019-01-23T13:23:28.792Z,99262.00
2019-01-23T13:25:59.481Z,99254.00
2019-01-23T13:28:30.265Z,99264.00
2019-01-23T13:31:00.699Z,99256.00
2019-01-23T13:33:31.496Z,99257.00
2019-01-23T13:36:01.920Z,99260.00
2019-01-23T13:38:32.286Z,99268.00
2019-01-23T13:41:02.818Z,99272.00
2019-01-23T13:43:33.256Z,99262.00
2019-01-23T13:46:05.734Z,99261.00
2019-01-23T13:48:36.535Z,99272.00
2019-01-23T13:51:07.974Z,99270.00
2019-01-23T13:53:40.542Z,99275.00
2019-01-23T13:56:11.065Z,99279.00
2019-01-23T13:58:41.929Z,99292.00
2019-01-23T14:01:12.584Z,99294.00
2019-01-23T14:03:43.048Z,99289.00
2019-01-23T14:06:13.430Z,99291.00
2019-01-23T14:08:43.765Z,99298.00
2019-01-23T14:11:14.718Z,99299.00
2019-01-23T14:13:45.880Z,99297.00
2019-01-23T14:16:16.349Z,99316.00
2019-01-23T14:18:46.853Z,99310.00
2019-01-23T14:21:17.564Z,99318.00
2019-01-23T14:23:48.051Z,99305.00
2019-01-23T14:26:18.697Z,99322.00
2019-01-23T14:28:49.153Z,99319.00
2019-01-23T14:31:19.577Z,99323.00
2019-01-23T14:33:49.996Z,99327.00
2019-01-23T14:36:20.377Z,99329.00
2019-01-23T14:38:51.162Z,99329.00
2019-01-23T14:41:22.414Z,99330.00
2019-01-23T14:43:53.877Z,99334.00
2019-01-23T14:46:24.364Z,99335.00
2019-01-23T14:48:54.748Z,99343.00
2019-01-23T14:51:25.207Z,99343.00
2019-01-23T14:53:55.694Z,99352.00
2019-01-23T14:56:26.359Z,99361.00
2019-01-23T14:58:56.818Z,99356.00
2019-01-23T15:01:27.239Z,99356.00
2019-01-23T15:03:58.297Z,99360.00
2019-01-23T15:06:28.725Z,99363.00
2019-01-23T15:08:59.091Z,99374.00
2019-01-23T15:11:30.906Z,99368.00
2019-01-23T15:14:01.809Z,99379.00
2019-01-23T15:16:32.240Z,99375.00
2019-01-23T15:19:02.970Z,99377.00
2019-01-23T15:21:33.361Z,99382.00
2019-01-23T15:24:03.825Z,99386.00
2019-01-23T15:26:34.245Z,99386.00
2019-01-23T15:29:04.943Z,99399.00
2019-01-23T15:31:35.383Z,99393.00
2019-01-23T15:34:06.356Z,99401.00
2019-01-23T15:36:36.742Z,99396.00
2019-01-23T15:39:10.119Z,99403.00
2019-01-23T15:41:40.975Z,99408.00
2019-01-23T15:44:11.652Z,99403.00
2019-01-23T15:46:42.054Z,99397.00
2019-01-23T15:49:12.504Z,99411.00
2019-01-23T15:51:42.976Z,99421.00
2019-01-23T15:54:13.416Z,99433.00
2019-01-23T15:56:44.159Z,99435.00
2019-01-23T15:59:14.531Z,99444.00
2019-01-23T16:01:45.063Z,99440.00
2019-01-23T16:04:16.023Z,99445.00
2019-01-23T16:06:46.393Z,99439.00
2019-01-23T16:09:17.159Z,99442.00
2019-01-23T16:11:47.561Z,99448.00
2019-01-23T16:14:18.016Z,99448.00
2019-01-23T16:16:48.429Z,99457.00
2019-01-23T16:19:19.487Z,99454.00
2019-01-23T16:21:50.506Z,99466.00
2019-01-23T16:24:20.970Z,99453.00
2019-01-23T16:26:51.485Z,99465.00
2019-01-23T16:29:22.725Z,99473.00
2019-01-23T16:31:53.138Z,99477.00
2019-01-23T16:34:23.593Z,99471.00
2019-01-23T16:36:54.203Z,99482.00
2019-01-23T16:39:24.975Z,99487.00
2019-01-23T16:41:56.745Z,99484.00
2019-01-23T16:44:27.642Z,99484.00
2019-01-23T16:46:58.002Z,99493.00
2019-01-23T16:49:28.511Z,99503.00
2019-01-23T16:51:58.954Z,99504.00
2019-01-23T16:54:30.421Z,99511.00
2019-01-23T16:57:00.942Z,99511.00
2019-01-23T16:59:31.331Z,99510.00
2019-01-23T17:02:01.806Z,99517.00
2019-01-23T17:04:32.265Z,99519.00
2019-01-23T17:07:02.931Z,99518.00
2019-01-23T17:09:33.436Z,99512.00
2019-01-23T17:12:09.207Z,99513.00
2019-01-23T17:14:36.663Z,99523.00
2019-01-23T17:17:07.104Z,99522.00
2019-01-23T17:19:37.447Z,99523.00
2019-01-23T17:22:07.912Z,99534.00
2019-01-23T17:24:38.849Z,99527.00
2019-01-23T17:27:09.290Z,99528.00
2019-01-23T17:29:39.766Z,99542.00
2019-01-23T17:32:10.590Z,99519.00
2019-01-23T17:34:41.077Z,99531.00
2019-01-23T17:37:11.458Z,99543.00
2019-01-23T17:39:43.869Z,99547.00
2019-01-23T17:42:14.260Z,99545.00
2019-01-23T17:44:44.660Z,99548.00
2019-01-23T17:47:15.221Z,99549.00
2019-01-23T17:49:45.927Z,99552.00
2019-01-23T17:52:16.859Z,99552.00
2019-01-23T17:54:48.088Z,99555.00
2019-01-23T17:57:18.494Z,99563.00
2019-01-23T17:59:49.303Z,99565.00
2019-01-23T18:02:19.652Z,99576.00
2019-01-23T18:04:51.138Z,99565.00
2019-01-23T18:07:21.610Z,99575.00
2019-01-23T18:09:52.293Z,99569.00
2019-01-23T18:12:22.745Z,99571.00
2019-01-23T18:14:53.738Z,99575.00
2019-01-23T18:17:26.341Z,99581.00
2019-01-23T18:19:56.735Z,99576.00
2019-01-23T18:22:27.117Z,99576.00
2019-01-23T18:24:57.504Z,99582.00
2019-01-23T18:27:28.471Z,99584.00
2019-01-23T18:29:59.026Z,99583.00
2019-01-23T18:32:30.780Z,99585.00
2019-01-23T18:35:39.517Z,99600.00
2019-01-23T18:39:02.040Z,99594.00
2019-01-23T18:42:20.956Z,99606.00
2019-01-23T18:45:24.365Z,99609.00
2019-01-23T18:48:52.253Z,99623.00
2019-01-23T18:51:43.171Z,99622.00
2019-01-23T18:54:14.937Z,99632.00
2019-01-23T18:56:45.319Z,99628.00
2019-01-23T18:59:23.676Z,99635.00
2019-01-23T19:02:02.420Z,99631.00
2019-01-23T19:04:33.139Z,99634.00
2019-01-23T19:07:03.530Z,99626.00
2019-01-23T19:09:33.970Z,99636.00
2019-01-23T19:12:04.831Z,99636.00
2019-01-23T19:14:41.371Z,99641.00
2019-01-23T19:17:12.794Z,99647.00
2019-01-23T19:19:43.208Z,99644.00
2019-01-23T19:22:13.538Z,99647.00
2019-01-23T19:24:44.158Z,99656.00
2019-01-23T19:27:14.536Z,99655.00
2019-01-23T19:29:51.667Z,99650.00
2019-01-23T19:32:22.050Z,99649.00
2019-01-23T19:35:10.871Z,99652.00
2019-01-23T19:37:41.236Z,99647.00
2019-01-23T19:40:12.841Z,99652.00
2019-01-23T19:42:43.220Z,99650.00
2019-01-23T19:45:20.677Z,99658.00
2019-01-23T19:47:51.535Z,99668.00
2019-01-23T19:50:21.923Z,99668.00
2019-01-23T19:52:52.537Z,99671.00
2019-01-23T19:55:22.957Z,99667.00
2019-01-23T19:57:53.746Z,99678.00
2019-01-23T20:00:26.228Z,99670.00
2019-01-23T20:02:57.054Z,99687.00
2019-01-23T20:05:30.600Z,99689.00
2019-01-23T20:08:01.186Z,99673.00
2019-01-23T20:10:31.619Z,99669.00
2019-01-23T20:13:02.002Z,99674.00
2019-01-23T20:15:32.675Z,99673.00
2019-01-23T20:18:09.653Z,99691.00
2019-01-23T20:20:43.138Z,99686.00
2019-01-23T20:23:14.101Z,99690.00
2019-01-23T20:25:44.761Z,99692.00
2019-01-23T20:28:15.859Z,99689.00
2019-01-23T20:30:55.588Z,99696.00
2019-01-23T20:33:28.094Z,99702.00
2019-01-23T20:35:58.111Z,99713.00
2019-01-23T20:38:29.097Z,99706.00
2019-01-23T20:40:59.503Z,99706.00
2019-01-23T20:43:30.189Z,99714.00
2019-01-23T20:46:14.856Z,99727.00
2019-01-23T20:48:45.204Z,99721.00
2019-01-23T20:51:17.855Z,99724.00
2019-01-23T20:53:48.160Z,99729.00
2019-01-23T20:56:18.910Z,99727.00
2019-01-23T20:59:08.337Z,99731.00
2019-01-23T21:01:41.361Z,99730.00
2019-01-23T21:04:22.817Z,99730.00
2019-01-23T21:06:53.277Z,99725.00
2019-01-23T21:09:33.565Z,99739.00
2019-01-23T21:12:03.942Z,99735.00
2019-01-23T21:14:34.865Z,99731.00
2019-01-23T21:17:05.637Z,99732.00
2019-01-23T21:19:36.013Z,99746.00
2019-01-23T21:22:06.401Z,99750.00
2019-01-23T21:24:36.924Z,99750.00
2019-01-23T21:27:07.353Z,99754.00
2019-01-23T21:29:37.715Z,99770.00
2019-01-23T21:32:08.101Z,99756.00
2019-01-23T21:34:39.774Z,99765.00
2019-01-23T21:37:10.174Z,99761.00
2019-01-23T21:39:42.793Z,99765.00
2019-01-23T21:42:13.671Z,99756.00
2019-01-23T21:44:44.107Z,99755.00
2019-01-23T21:47:14.532Z,99763.00
2019-01-23T21:49:44.877Z,99771.00
2019-01-23T21:52:15.716Z,99767.00
2019-01-23T21:54:46.103Z,99760.00
2019-01-23T21:57:16.698Z,99763.00
2019-01-23T21:59:47.366Z,99757.00
2019-01-23T22:02:18.029Z,99763.00
2019-01-23T22:04:48.580Z,99762.00
2019-01-23T22:07:19.132Z,99773.00
2019-01-23T22:09:49.542Z,99775.00
2019-01-23T22:12:19.950Z,99760.00
2019-01-23T22:14:50.466Z,99767.00
2019-01-23T22:17:20.804Z,99769.00
2019-01-23T22:19:51.565Z,99789.00
2019-01-23T22:22:21.998Z,99786.00
2019-01-23T22:24:52.796Z,99802.00
2019-01-23T22:27:25.499Z,99793.00
2019-01-23T22:29:56.092Z,99785.00
2019-01-23T22:32:26.581Z,99779.00
2019-01-23T22:34:57.636Z,99796.00
2019-01-23T22:37:28.021Z,99791.00
2019-01-23T22:39:58.448Z,99797.00
2019-01-23T22:42:28.948Z,99790.00
2019-01-23T22:44:59.680Z,99791.00
2019-01-23T22:47:30.144Z,99795.00
2019-01-23T22:50:00.584Z,99799.00
2019-01-23T22:52:31.219Z,99809.00
2019-01-23T22:55:01.645Z,99820.00
2019-01-23T22:57:32.017Z,99823.00
2019-01-23T23:00:03.801Z,99807.00
2019-01-23T23:02:34.406Z,99821.00
2019-01-23T23:05:06.351Z,99823.00
2019-01-23T23:07:36.872Z,99829.00
2019-01-23T23:10:09.784Z,99836.00
2019-01-23T23:12:40.308Z,99836.00
2019-01-23T23:15:11.343Z,99838.00
2019-01-23T23:17:41.926Z,99856.00
2019-01-23T23:20:18.331Z,99855.00
2019-01-23T23:22:48.938Z,99854.00
2019-01-23T23:25:19.564Z,99867.00
2019-01-23T23:27:49.966Z,99870.00
2019-01-23T23:30:21.039Z,99865.00
2019-01-23T23:32:51.912Z,99872.00
2019-01-23T23:35:22.582Z,99875.00
2019-01-23T23:37:53.083Z,99873.00
2019-01-23T23:40:25.060Z,99873.00
2019-01-23T23:42:55.477Z,99883.00
2019-01-23T23:45:26.121Z,99874.00
2019-01-23T23:47:56.758Z,99896.00
2019-01-23T23:50:27.675Z,99890.00
2019-01-23T23:52:59.201Z,99891.00
2019-01-23T23:55:29.642Z,99893.00
2019-01-23T23:58:00.608Z,99899.00
